sensor_id;sensor_type;location;lat;lon;timestamp;pressure;altitude;pressure_sealevel;temperature;humidity
39729;BME280;25402;42.004;23.088;2022-10-29T00:02:15;98534.94;;;4.37;45.21
39729;BME280;25402;42.004;23.088;2022-10-29T00:04:52;98565.25;;;4.38;45.49
39729;BME280;25402;42.004;23.088;2022-10-29T00:07:22;98566.97;;;4.39;45.33
39729;BME280;25402;42.004;23.088;2022-10-29T00:10:02;98542.25;;;4.24;45.57
39729;BME280;25402;42.004;23.088;2022-10-29T00:12:38;98571.19;;;4.41;45.91
39729;BME280;25402;42.004;23.088;2022-10-29T00:15:22;98560.75;;;4.38;45.83
39729;BME280;25402;42.004;23.088;2022-10-29T00:18:06;98564.75;;;4.33;46.04
39729;BME280;25402;42.004;23.088;2022-10-29T00:20:41;98540.91;;;4.19;46.06
39729;BME280;25402;42.004;23.088;2022-10-29T00:25:47;98608.09;;;4.60;45.67
39729;BME280;25402;42.004;23.088;2022-10-29T00:28:15;98580.81;;;4.44;45.42
39729;BME280;25402;42.004;23.088;2022-10-29T00:30:45;98565.00;;;4.19;45.32
39729;BME280;25402;42.004;23.088;2022-10-29T00:33:15;98562.09;;;4.22;45.12
39729;BME280;25402;42.004;23.088;2022-10-29T00:35:53;98454.59;;;3.59;45.35
39729;BME280;25402;42.004;23.088;2022-10-29T00:38:23;98532.97;;;4.06;45.43
39729;BME280;25402;42.004;23.088;2022-10-29T00:40:51;98550.88;;;4.17;45.32
39729;BME280;25402;42.004;23.088;2022-10-29T00:43:21;98575.25;;;4.25;45.64
39729;BME280;25402;42.004;23.088;2022-10-29T00:45:52;98466.72;;;3.63;45.45
39729;BME280;25402;42.004;23.088;2022-10-29T00:48:21;98475.03;;;3.71;45.62
39729;BME280;25402;42.004;23.088;2022-10-29T00:50:50;98543.69;;;4.06;45.56
39729;BME280;25402;42.004;23.088;2022-10-29T00:53:25;98506.06;;;3.85;45.58
39729;BME280;25402;42.004;23.088;2022-10-29T00:55:56;98474.66;;;3.65;45.57
39729;BME280;25402;42.004;23.088;2022-10-29T00:58:25;98488.28;;;3.73;45.55
39729;BME280;25402;42.004;23.088;2022-10-29T01:00:56;98508.34;;;3.78;45.79
39729;BME280;25402;42.004;23.088;2022-10-29T01:03:24;98435.44;;;3.30;46.14
39729;BME280;25402;42.004;23.088;2022-10-29T01:05:52;98525.88;;;3.83;46.37
39729;BME280;25402;42.004;23.088;2022-10-29T01:08:21;98519.56;;;3.84;46.22
39729;BME280;25402;42.004;23.088;2022-10-29T01:10:59;98545.13;;;3.99;46.40
39729;BME280;25402;42.004;23.088;2022-10-29T01:13:49;98468.94;;;3.58;46.40
39729;BME280;25402;42.004;23.088;2022-10-29T01:16:28;98519.22;;;3.88;46.51
39729;BME280;25402;42.004;23.088;2022-10-29T01:19:07;98572.53;;;4.13;46.59
39729;BME280;25402;42.004;23.088;2022-10-29T01:21:40;98516.25;;;3.80;46.46
39729;BME280;25402;42.004;23.088;2022-10-29T01:24:39;98500.81;;;3.72;46.01
39729;BME280;25402;42.004;23.088;2022-10-29T01:27:42;98458.34;;;3.46;45.52
39729;BME280;25402;42.004;23.088;2022-10-29T01:30:22;98575.22;;;4.02;45.62
39729;BME280;25402;42.004;23.088;2022-10-29T01:33:05;98576.91;;;4.03;45.52
39729;BME280;25402;42.004;23.088;2022-10-29T01:35:44;98521.59;;;3.69;45.36
39729;BME280;25402;42.004;23.088;2022-10-29T01:38:23;98569.47;;;3.96;45.50
39729;BME280;25402;42.004;23.088;2022-10-29T01:40:57;98515.28;;;3.59;45.62
39729;BME280;25402;42.004;23.088;2022-10-29T01:43:32;98440.19;;;3.03;45.55
39729;BME280;25402;42.004;23.088;2022-10-29T01:46:06;98550.69;;;3.73;45.55
39729;BME280;25402;42.004;23.088;2022-10-29T01:48:43;98467.22;;;3.22;46.20
39729;BME280;25402;42.004;23.088;2022-10-29T01:51:17;98513.91;;;3.42;46.40
39729;BME280;25402;42.004;23.088;2022-10-29T01:53:47;98453.72;;;3.13;46.61
39729;BME280;25402;42.004;23.088;2022-10-29T01:56:15;98567.97;;;3.80;46.55
39729;BME280;25402;42.004;23.088;2022-10-29T01:58:46;98558.63;;;3.75;46.54
39729;BME280;25402;42.004;23.088;2022-10-29T02:01:32;98510.72;;;3.48;46.37
39729;BME280;25402;42.004;23.088;2022-10-29T02:04:19;98514.22;;;3.37;46.64
39729;BME280;25402;42.004;23.088;2022-10-29T02:06:57;98505.22;;;3.27;46.71
39729;BME280;25402;42.004;23.088;2022-10-29T02:09:30;98516.16;;;3.35;46.90
39729;BME280;25402;42.004;23.088;2022-10-29T02:12:05;98456.34;;;3.01;46.77
39729;BME280;25402;42.004;23.088;2022-10-29T02:14:38;98465.69;;;2.96;46.74
39729;BME280;25402;42.004;23.088;2022-10-29T02:17:07;98520.50;;;3.25;46.55
39729;BME280;25402;42.004;23.088;2022-10-29T02:19:39;98487.22;;;3.05;46.32
39729;BME280;25402;42.004;23.088;2022-10-29T02:22:06;98440.56;;;2.74;46.17
39729;BME280;25402;42.004;23.088;2022-10-29T02:24:34;98528.50;;;3.25;46.00
39729;BME280;25402;42.004;23.088;2022-10-29T02:27:01;98508.75;;;3.15;46.23
39729;BME280;25402;42.004;23.088;2022-10-29T02:29:28;98457.88;;;2.82;46.19
39729;BME280;25402;42.004;23.088;2022-10-29T02:31:56;98514.84;;;3.17;46.25
39729;BME280;25402;42.004;23.088;2022-10-29T02:34:27;98470.94;;;2.97;46.12
39729;BME280;25402;42.004;23.088;2022-10-29T02:36:56;98509.03;;;3.12;46.50
39729;BME280;25402;42.004;23.088;2022-10-29T02:39:24;98533.47;;;3.19;46.83
39729;BME280;25402;42.004;23.088;2022-10-29T02:41:53;98492.03;;;2.89;46.71
39729;BME280;25402;42.004;23.088;2022-10-29T02:44:23;98547.06;;;3.16;46.77
39729;BME280;25402;42.004;23.088;2022-10-29T02:46:51;98502.81;;;2.88;46.85
39729;BME280;25402;42.004;23.088;2022-10-29T02:49:19;98560.84;;;3.22;46.86
39729;BME280;25402;42.004;23.088;2022-10-29T02:51:47;98561.56;;;3.24;46.71
39729;BME280;25402;42.004;23.088;2022-10-29T02:54:18;98496.00;;;2.84;46.51
39729;BME280;25402;42.004;23.088;2022-10-29T02:56:45;98449.84;;;2.58;46.50
39729;BME280;25402;42.004;23.088;2022-10-29T02:59:13;98430.25;;;2.46;46.04
39729;BME280;25402;42.004;23.088;2022-10-29T03:01:40;98478.22;;;2.71;46.27
39729;BME280;25402;42.004;23.088;2022-10-29T03:04:09;98518.84;;;2.88;46.20
39729;BME280;25402;42.004;23.088;2022-10-29T03:06:37;98499.59;;;2.71;46.29
39729;BME280;25402;42.004;23.088;2022-10-29T03:09:04;98457.81;;;2.47;46.33
39729;BME280;25402;42.004;23.088;2022-10-29T03:11:34;98560.06;;;3.09;46.42
39729;BME280;25402;42.004;23.088;2022-10-29T03:14:04;98538.19;;;2.91;46.54
39729;BME280;25402;42.004;23.088;2022-10-29T03:16:32;98493.59;;;2.68;46.44
39729;BME280;25402;42.004;23.088;2022-10-29T03:18:59;98560.50;;;3.03;46.73
39729;BME280;25402;42.004;23.088;2022-10-29T03:21:27;98543.44;;;2.93;46.93
39729;BME280;25402;42.004;23.088;2022-10-29T03:23:55;98563.91;;;3.05;47.00
39729;BME280;25402;42.004;23.088;2022-10-29T03:26:23;98504.44;;;2.66;46.99
39729;BME280;25402;42.004;23.088;2022-10-29T03:28:54;98486.59;;;2.54;47.34
39729;BME280;25402;42.004;23.088;2022-10-29T03:31:23;98506.00;;;2.69;47.55
39729;BME280;25402;42.004;23.088;2022-10-29T03:33:52;98559.75;;;3.01;47.85
39729;BME280;25402;42.004;23.088;2022-10-29T03:36:19;98475.72;;;2.57;47.83
39729;BME280;25402;42.004;23.088;2022-10-29T03:38:47;98513.78;;;2.72;47.62
39729;BME280;25402;42.004;23.088;2022-10-29T03:41:15;98465.75;;;2.35;47.34
39729;BME280;25402;42.004;23.088;2022-10-29T03:43:44;98474.38;;;2.39;47.12
39729;BME280;25402;42.004;23.088;2022-10-29T03:46:21;98551.16;;;2.85;46.85
39729;BME280;25402;42.004;23.088;2022-10-29T03:48:49;98570.81;;;2.96;46.81
39729;BME280;25402;42.004;23.088;2022-10-29T03:51:17;98568.34;;;2.93;47.15
39729;BME280;25402;42.004;23.088;2022-10-29T03:53:44;98571.81;;;2.83;47.08
39729;BME280;25402;42.004;23.088;2022-10-29T03:56:11;98536.94;;;2.60;46.73
39729;BME280;25402;42.004;23.088;2022-10-29T03:58:39;98470.94;;;2.13;46.86
39729;BME280;25402;42.004;23.088;2022-10-29T04:01:08;98513.41;;;2.29;46.81
39729;BME280;25402;42.004;23.088;2022-10-29T04:03:38;98567.47;;;2.69;46.79
39729;BME280;25402;42.004;23.088;2022-10-29T04:06:10;98519.19;;;2.35;46.70
39729;BME280;25402;42.004;23.088;2022-10-29T04:08:39;98525.25;;;2.25;47.04
39729;BME280;25402;42.004;23.088;2022-10-29T04:11:09;98516.59;;;2.21;47.01
39729;BME280;25402;42.004;23.088;2022-10-29T04:13:38;98516.84;;;2.18;47.12
39729;BME280;25402;42.004;23.088;2022-10-29T04:16:06;98581.06;;;2.53;47.13
39729;BME280;25402;42.004;23.088;2022-10-29T04:18:34;98505.84;;;2.10;47.17
39729;BME280;25402;42.004;23.088;2022-10-29T04:21:18;98520.03;;;2.23;47.23
39729;BME280;25402;42.004;23.088;2022-10-29T04:23:45;98505.75;;;2.12;47.41
39729;BME280;25402;42.004;23.088;2022-10-29T04:26:13;98516.09;;;2.16;47.46
39729;BME280;25402;42.004;23.088;2022-10-29T04:28:41;98561.06;;;2.35;47.89
39729;BME280;25402;42.004;23.088;2022-10-29T04:31:10;98527.09;;;2.12;48.14
39729;BME280;25402;42.004;23.088;2022-10-29T04:33:38;98561.06;;;2.35;47.65
39729;BME280;25402;42.004;23.088;2022-10-29T04:36:06;98499.59;;;1.98;46.86
39729;BME280;25402;42.004;23.088;2022-10-29T04:38:42;98495.41;;;1.94;46.72
39729;BME280;25402;42.004;23.088;2022-10-29T04:41:11;98569.16;;;2.33;46.68
39729;BME280;25402;42.004;23.088;2022-10-29T04:43:39;98508.75;;;1.94;46.67
39729;BME280;25402;42.004;23.088;2022-10-29T04:46:09;98565.97;;;2.28;46.73
39729;BME280;25402;42.004;23.088;2022-10-29T04:48:37;98563.81;;;2.21;46.73
39729;BME280;25402;42.004;23.088;2022-10-29T04:51:18;98558.72;;;2.18;46.89
39729;BME280;25402;42.004;23.088;2022-10-29T04:53:51;98496.28;;;1.82;46.81
39729;BME280;25402;42.004;23.088;2022-10-29T04:56:18;98565.78;;;2.19;46.50
39729;BME280;25402;42.004;23.088;2022-10-29T04:58:45;98535.03;;;2.00;46.76
39729;BME280;25402;42.004;23.088;2022-10-29T05:01:12;98446.97;;;1.50;46.60
39729;BME280;25402;42.004;23.088;2022-10-29T05:03:41;98586.66;;;2.37;46.86
39729;BME280;25402;42.004;23.088;2022-10-29T05:06:16;98524.47;;;1.99;46.94
39729;BME280;25402;42.004;23.088;2022-10-29T05:08:47;98570.00;;;2.21;46.91
39729;BME280;25402;42.004;23.088;2022-10-29T05:11:17;98536.06;;;2.11;46.67
39729;BME280;25402;42.004;23.088;2022-10-29T05:13:45;98537.50;;;2.03;47.11
39729;BME280;25402;42.004;23.088;2022-10-29T05:16:16;98565.78;;;2.19;46.91
39729;BME280;25402;42.004;23.088;2022-10-29T05:18:43;98493.06;;;1.77;46.57
39729;BME280;25402;42.004;23.088;2022-10-29T05:21:10;98534.56;;;2.07;46.63
39729;BME280;25402;42.004;23.088;2022-10-29T05:23:37;98531.19;;;2.04;46.98
39729;BME280;25402;42.004;23.088;2022-10-29T05:26:05;98566.06;;;2.27;47.24
39729;BME280;25402;42.004;23.088;2022-10-29T05:28:34;98548.66;;;2.09;47.83
39729;BME280;25402;42.004;23.088;2022-10-29T05:31:01;98503.34;;;1.83;47.85
39729;BME280;25402;42.004;23.088;2022-10-29T05:33:28;98602.34;;;2.55;47.58
39729;BME280;25402;42.004;23.088;2022-10-29T05:35:58;98560.16;;;2.47;47.28
39729;BME280;25402;42.004;23.088;2022-10-29T05:38:27;98521.09;;;2.33;47.17
39729;BME280;25402;42.004;23.088;2022-10-29T05:40:57;98619.84;;;3.08;47.05
39729;BME280;25402;42.004;23.088;2022-10-29T05:43:25;98548.94;;;2.79;46.82
39729;BME280;25402;42.004;23.088;2022-10-29T05:46:02;98569.59;;;3.00;46.82
39729;BME280;25402;42.004;23.088;2022-10-29T05:48:29;98552.03;;;3.09;46.36
39729;BME280;25402;42.004;23.088;2022-10-29T05:51:01;98597.31;;;3.47;45.69
39729;BME280;25402;42.004;23.088;2022-10-29T05:53:29;98619.66;;;3.70;45.83
39729;BME280;25402;42.004;23.088;2022-10-29T05:55:57;98551.91;;;3.34;45.84
39729;BME280;25402;42.004;23.088;2022-10-29T05:58:25;98614.34;;;3.81;45.77
39729;BME280;25402;42.004;23.088;2022-10-29T06:00:52;98615.81;;;3.85;45.69
39729;BME280;25402;42.004;23.088;2022-10-29T06:03:23;98563.69;;;3.67;45.27
39729;BME280;25402;42.004;23.088;2022-10-29T06:05:50;98612.94;;;3.99;45.37
39729;BME280;25402;42.004;23.088;2022-10-29T06:08:18;98563.22;;;3.73;45.39
39729;BME280;25402;42.004;23.088;2022-10-29T06:10:46;98588.84;;;3.99;45.38
39729;BME280;25402;42.004;23.088;2022-10-29T06:13:16;98529.25;;;3.62;45.50
39729;BME280;25402;42.004;23.088;2022-10-29T06:15:43;98590.31;;;4.03;45.50
39729;BME280;25402;42.004;23.088;2022-10-29T06:18:11;98488.25;;;3.51;45.62
39729;BME280;25402;42.004;23.088;2022-10-29T06:20:41;98536.34;;;3.74;46.27
39729;BME280;25402;42.004;23.088;2022-10-29T06:23:11;98547.47;;;3.92;45.86
39729;BME280;25402;42.004;23.088;2022-10-29T06:25:41;98545.88;;;4.01;45.83
39729;BME280;25402;42.004;23.088;2022-10-29T06:28:11;98567.91;;;4.27;45.74
39729;BME280;25402;42.004;23.088;2022-10-29T06:30:40;98595.19;;;4.43;45.97
39729;BME280;25402;42.004;23.088;2022-10-29T06:33:07;98514.97;;;4.08;45.65
39729;BME280;25402;42.004;23.088;2022-10-29T06:35:36;98571.19;;;4.41;45.88
39729;BME280;25402;42.004;23.088;2022-10-29T06:38:05;98637.88;;;4.79;45.72
39729;BME280;25402;42.004;23.088;2022-10-29T06:40:33;98580.09;;;4.53;45.83
39729;BME280;25402;42.004;23.088;2022-10-29T06:43:03;98631.50;;;5.03;45.40
39729;BME280;25402;42.004;23.088;2022-10-29T06:45:32;98583.75;;;4.86;45.51
39729;BME280;25402;42.004;23.088;2022-10-29T06:48:05;98537.19;;;4.75;45.02
39729;BME280;25402;42.004;23.088;2022-10-29T06:50:32;98548.91;;;4.86;45.01
39729;BME280;25402;42.004;23.088;2022-10-29T06:53:00;98572.09;;;5.18;44.69
39729;BME280;25402;42.004;23.088;2022-10-29T06:55:30;98574.81;;;5.39;44.35
39729;BME280;25402;42.004;23.088;2022-10-29T06:58:05;98554.19;;;5.40;44.22
39729;BME280;25402;42.004;23.088;2022-10-29T07:00:33;98594.75;;;5.78;44.09
39729;BME280;25402;42.004;23.088;2022-10-29T07:03:08;98583.59;;;5.83;44.07
39729;BME280;25402;42.004;23.088;2022-10-29T07:05:53;98578.66;;;5.99;43.84
39729;BME280;25402;42.004;23.088;2022-10-29T07:08:27;98494.59;;;5.67;43.57
39729;BME280;25402;42.004;23.088;2022-10-29T07:11:05;98532.34;;;6.07;43.33
39729;BME280;25402;42.004;23.088;2022-10-29T07:13:39;98500.75;;;5.99;42.98
39729;BME280;25402;42.004;23.088;2022-10-29T07:16:18;98625.25;;;6.91;43.03
39729;BME280;25402;42.004;23.088;2022-10-29T07:18:59;98551.53;;;6.63;42.32
39729;BME280;25402;42.004;23.088;2022-10-29T07:21:34;98624.63;;;7.18;42.24
39729;BME280;25402;42.004;23.088;2022-10-29T07:24:43;98486.59;;;6.68;41.82
39729;BME280;25402;42.004;23.088;2022-10-29T07:27:32;98480.78;;;6.72;41.49
39729;BME280;25402;42.004;23.088;2022-10-29T07:30:13;98530.44;;;7.18;41.23
39729;BME280;25402;42.004;23.088;2022-10-29T07:33:08;98526.19;;;7.35;41.01
39729;BME280;25402;42.004;23.088;2022-10-29T07:36:00;98544.47;;;7.60;40.30
39729;BME280;25402;42.004;23.088;2022-10-29T07:41:37;98522.84;;;7.89;40.17
39729;BME280;25402;42.004;23.088;2022-10-29T07:44:33;98529.75;;;8.11;39.63
39729;BME280;25402;42.004;23.088;2022-10-29T07:47:27;98546.72;;;8.40;39.44
39729;BME280;25402;42.004;23.088;2022-10-29T10:44:49;98329.09;;;17.51;26.55
39729;BME280;25402;42.004;23.088;2022-10-29T10:47:18;98304.47;;;17.64;26.28
39729;BME280;25402;42.004;23.088;2022-10-29T10:49:46;98309.91;;;17.90;26.09
39729;BME280;25402;42.004;23.088;2022-10-29T10:52:15;98306.50;;;18.01;26.05
39729;BME280;25402;42.004;23.088;2022-10-29T10:54:44;98302.59;;;18.29;25.67
39729;BME280;25402;42.004;23.088;2022-10-29T10:57:21;98304.22;;;18.56;25.05
39729;BME280;25402;42.004;23.088;2022-10-29T10:59:57;98291.88;;;18.72;24.95
39729;BME280;25402;42.004;23.088;2022-10-29T11:02:43;98285.91;;;18.82;25.16
39729;BME280;25402;42.004;23.088;2022-10-29T11:05:16;98284.13;;;18.94;24.86
39729;BME280;25402;42.004;23.088;2022-10-29T11:07:48;98275.59;;;19.08;24.76
39729;BME280;25402;42.004;23.088;2022-10-29T11:10:19;98270.06;;;19.15;24.63
39729;BME280;25402;42.004;23.088;2022-10-29T11:12:53;98274.38;;;19.29;24.55
39729;BME280;25402;42.004;23.088;2022-10-29T11:15:32;98258.22;;;19.39;24.21
39729;BME280;25402;42.004;23.088;2022-10-29T11:18:05;98233.22;;;19.29;24.27
39729;BME280;25402;42.004;23.088;2022-10-29T11:20:39;98247.28;;;19.58;24.42
39729;BME280;25402;42.004;23.088;2022-10-29T11:23:22;98245.44;;;19.76;24.04
39729;BME280;25402;42.004;23.088;2022-10-29T11:25:53;98244.03;;;19.86;24.10
39729;BME280;25402;42.004;23.088;2022-10-29T11:28:30;98239.22;;;19.99;23.80
39729;BME280;25402;42.004;23.088;2022-10-29T11:31:07;98235.19;;;20.02;23.44
39729;BME280;25402;42.004;23.088;2022-10-29T11:33:43;98232.38;;;20.08;23.68
39729;BME280;25402;42.004;23.088;2022-10-29T11:36:17;98226.06;;;20.20;23.57
39729;BME280;25402;42.004;23.088;2022-10-29T11:38:48;98222.19;;;20.27;23.59
39729;BME280;25402;42.004;23.088;2022-10-29T11:41:23;98212.94;;;20.40;23.43
39729;BME280;25402;42.004;23.088;2022-10-29T11:43:51;98196.00;;;20.43;23.10
39729;BME280;25402;42.004;23.088;2022-10-29T11:46:29;98204.25;;;20.43;23.31
39729;BME280;25402;42.004;23.088;2022-10-29T11:49:06;98193.50;;;20.53;22.91
39729;BME280;25402;42.004;23.088;2022-10-29T11:51:43;98194.94;;;20.56;22.70
39729;BME280;25402;42.004;23.088;2022-10-29T11:54:23;98146.75;;;20.30;22.92
39729;BME280;25402;42.004;23.088;2022-10-29T11:56:55;98181.81;;;20.58;22.99
39729;BME280;25402;42.004;23.088;2022-10-29T11:59:36;98184.56;;;20.69;22.83
39729;BME280;25402;42.004;23.088;2022-10-29T12:02:23;98177.53;;;20.73;22.40
39729;BME280;25402;42.004;23.088;2022-10-29T12:04:58;98171.91;;;20.68;22.34
39729;BME280;25402;42.004;23.088;2022-10-29T12:07:38;98156.25;;;20.69;22.39
39729;BME280;25402;42.004;23.088;2022-10-29T12:10:39;98166.94;;;20.89;21.64
39729;BME280;25402;42.004;23.088;2022-10-29T12:13:23;98159.78;;;20.99;21.85
39729;BME280;25402;42.004;23.088;2022-10-29T12:16:06;98153.91;;;20.96;21.83
39729;BME280;25402;42.004;23.088;2022-10-29T12:18:43;98158.31;;;20.97;21.48
39729;BME280;25402;42.004;23.088;2022-10-29T12:21:20;98150.22;;;21.02;21.69
39729;BME280;25402;42.004;23.088;2022-10-29T12:23:59;98134.78;;;20.89;21.70
39729;BME280;25402;42.004;23.088;2022-10-29T12:26:35;98129.34;;;20.82;21.50
39729;BME280;25402;42.004;23.088;2022-10-29T12:29:10;98134.00;;;20.59;20.21
39729;BME280;25402;42.004;23.088;2022-10-29T12:31:44;98132.34;;;20.69;21.09
39729;BME280;25402;42.004;23.088;2022-10-29T12:34:22;98132.09;;;20.59;20.40
39729;BME280;25402;42.004;23.088;2022-10-29T12:37:01;98096.50;;;20.23;20.56
39729;BME280;25402;42.004;23.088;2022-10-29T12:39:35;98130.44;;;20.70;20.55
39729;BME280;25402;42.004;23.088;2022-10-29T12:42:09;98120.88;;;20.72;20.20
39729;BME280;25402;42.004;23.088;2022-10-29T12:44:43;98126.50;;;20.77;20.14
39729;BME280;25402;42.004;23.088;2022-10-29T12:47:15;98118.59;;;20.81;20.32
39729;BME280;25402;42.004;23.088;2022-10-29T12:49:54;98110.41;;;20.93;20.24
39729;BME280;25402;42.004;23.088;2022-10-29T12:52:33;98098.28;;;20.94;20.84
39729;BME280;25402;42.004;23.088;2022-10-29T12:55:07;98110.25;;;21.11;21.34
39729;BME280;25402;42.004;23.088;2022-10-29T12:57:36;98090.28;;;21.04;21.28
39729;BME280;25402;42.004;23.088;2022-10-29T13:03:07;98102.00;;;21.11;20.81
39729;BME280;25402;42.004;23.088;2022-10-29T13:05:38;98102.22;;;21.09;20.85
39729;BME280;25402;42.004;23.088;2022-10-29T13:08:26;98069.50;;;21.08;20.49
39729;BME280;25402;42.004;23.088;2022-10-29T13:10:58;98063.75;;;20.98;20.68
39729;BME280;25402;42.004;23.088;2022-10-29T13:13:48;98088.25;;;21.23;20.38
39729;BME280;25402;42.004;23.088;2022-10-29T13:16:19;98077.00;;;21.12;20.60
39729;BME280;25402;42.004;23.088;2022-10-29T13:19:00;98078.44;;;21.15;20.27
39729;BME280;25402;42.004;23.088;2022-10-29T13:22:02;98069.47;;;21.20;20.32
39729;BME280;25402;42.004;23.088;2022-10-29T13:24:30;98063.88;;;21.03;20.25
39729;BME280;25402;42.004;23.088;2022-10-29T13:27:03;98051.19;;;21.02;20.67
39729;BME280;25402;42.004;23.088;2022-10-29T13:29:48;98059.44;;;21.02;21.06
39729;BME280;25402;42.004;23.088;2022-10-29T13:32:32;98054.53;;;21.04;21.02
39729;BME280;25402;42.004;23.088;2022-10-29T13:35:00;98053.13;;;20.90;21.15
39729;BME280;25402;42.004;23.088;2022-10-29T13:41:08;98047.47;;;20.85;21.31
39729;BME280;25402;42.004;23.088;2022-10-29T13:43:36;98051.19;;;20.67;21.14
39729;BME280;25402;42.004;23.088;2022-10-29T13:46:31;98047.00;;;20.64;20.99
39729;BME280;25402;42.004;23.088;2022-10-29T13:49:02;98035.88;;;20.47;21.14
39729;BME280;25402;42.004;23.088;2022-10-29T13:51:38;98043.03;;;20.37;21.29
39729;BME280;25402;42.004;23.088;2022-10-29T13:54:13;98033.81;;;20.31;21.24
39729;BME280;25402;42.004;23.088;2022-10-29T13:56:47;98038.94;;;20.28;21.21
39729;BME280;25402;42.004;23.088;2022-10-29T13:59:37;98033.19;;;20.18;21.34
39729;BME280;25402;42.004;23.088;2022-10-29T14:02:27;98031.03;;;20.08;21.04
39729;BME280;25402;42.004;23.088;2022-10-29T14:05:00;98034.22;;;19.93;21.33
39729;BME280;25402;42.004;23.088;2022-10-29T14:07:29;98034.00;;;19.95;21.26
39729;BME280;25402;42.004;23.088;2022-10-29T14:10:06;98024.22;;;19.69;20.81
39729;BME280;25402;42.004;23.088;2022-10-29T14:12:40;98026.66;;;19.59;21.00
39729;BME280;25402;42.004;23.088;2022-10-29T14:15:11;98034.09;;;19.40;21.10
39729;BME280;25402;42.004;23.088;2022-10-29T14:17:39;98015.91;;;19.27;21.03
39729;BME280;25402;42.004;23.088;2022-10-29T14:20:19;98008.84;;;19.20;21.27
39729;BME280;25402;42.004;23.088;2022-10-29T14:22:46;98005.25;;;19.01;21.23
39729;BME280;25402;42.004;23.088;2022-10-29T14:25:29;98014.09;;;19.03;21.47
39729;BME280;25402;42.004;23.088;2022-10-29T14:28:20;98003.63;;;18.93;21.07
39729;BME280;25402;42.004;23.088;2022-10-29T14:30:59;98016.50;;;18.74;21.47
39729;BME280;25402;42.004;23.088;2022-10-29T14:33:27;98003.38;;;18.58;21.62
39729;BME280;25402;42.004;23.088;2022-10-29T14:36:00;98010.47;;;18.48;21.90
39729;BME280;25402;42.004;23.088;2022-10-29T14:38:36;98007.00;;;18.34;22.22
39729;BME280;25402;42.004;23.088;2022-10-29T14:41:05;98008.16;;;18.20;22.21
39729;BME280;25402;42.004;23.088;2022-10-29T14:43:33;98005.34;;;18.08;22.33
39729;BME280;25402;42.004;23.088;2022-10-29T14:48:38;98005.50;;;17.82;23.10
39729;BME280;25402;42.004;23.088;2022-10-29T14:53:53;98012.41;;;17.53;24.07
39729;BME280;25402;42.004;23.088;2022-10-29T14:59:06;98010.69;;;17.20;24.85
39729;BME280;25402;42.004;23.088;2022-10-29T15:01:45;98011.34;;;17.09;24.79
39729;BME280;25402;42.004;23.088;2022-10-29T15:07:12;97997.81;;;16.70;25.33
39729;BME280;25402;42.004;23.088;2022-10-29T19:57:22;98195.78;;;7.00;40.42
39729;BME280;25402;42.004;23.088;2022-10-29T19:59:59;98141.75;;;6.56;40.36
39729;BME280;25402;42.004;23.088;2022-10-29T20:02:33;98107.03;;;6.26;40.42
39729;BME280;25402;42.004;23.088;2022-10-29T20:05:01;98133.88;;;6.35;40.34
39729;BME280;25402;42.004;23.088;2022-10-29T20:07:30;98197.19;;;6.57;40.70
39729;BME280;25402;42.004;23.088;2022-10-29T20:13:15;98175.47;;;6.21;41.46
39729;BME280;25402;42.004;23.088;2022-10-29T20:16:12;98207.69;;;6.41;41.41
39729;BME280;25402;42.004;23.088;2022-10-29T20:18:53;98106.22;;;5.77;41.53
39729;BME280;25402;42.004;23.088;2022-10-29T20:21:43;98219.72;;;6.37;42.34
39729;BME280;25402;42.004;23.088;2022-10-29T20:24:21;98188.19;;;6.19;41.81
39729;BME280;25402;42.004;23.088;2022-10-29T20:26:57;98231.19;;;6.39;41.76
39729;BME280;25402;42.004;23.088;2022-10-29T20:29:43;98181.28;;;6.07;41.57
39729;BME280;25402;42.004;23.088;2022-10-29T20:32:16;98124.56;;;5.72;41.77
39729;BME280;25402;42.004;23.088;2022-10-29T20:35:04;98208.69;;;6.30;41.79
39729;BME280;25402;42.004;23.088;2022-10-29T20:37:39;98148.03;;;5.89;41.73
39729;BME280;25402;42.004;23.088;2022-10-29T20:40:10;98137.00;;;5.73;41.98
39729;BME280;25402;42.004;23.088;2022-10-29T20:43:09;98159.75;;;5.88;41.73
39729;BME280;25402;42.004;23.088;2022-10-29T20:46:01;98151.44;;;5.81;41.80
39729;BME280;25402;42.004;23.088;2022-10-29T20:48:45;98222.53;;;6.16;42.11
39729;BME280;25402;42.004;23.088;2022-10-29T20:51:31;98186.09;;;5.94;42.18
39729;BME280;25402;42.004;23.088;2022-10-29T20:54:02;98159.91;;;5.77;42.84
39729;BME280;25402;42.004;23.088;2022-10-29T20:56:35;98168.81;;;5.77;42.69
39729;BME280;25402;42.004;23.088;2022-10-29T20:59:14;98199.38;;;5.96;42.72
39729;BME280;25402;42.004;23.088;2022-10-29T21:01:46;98115.66;;;5.42;42.54
39729;BME280;25402;42.004;23.088;2022-10-29T21:04:13;98241.50;;;6.14;42.62
39729;BME280;25402;42.004;23.088;2022-10-29T21:06:43;98214.34;;;5.98;42.65
39729;BME280;25402;42.004;23.088;2022-10-29T21:09:11;98114.22;;;5.38;42.55
39729;BME280;25402;42.004;23.088;2022-10-29T21:11:40;98225.66;;;5.92;42.63
39729;BME280;25402;42.004;23.088;2022-10-29T21:14:08;98196.47;;;5.68;42.77
39729;BME280;25402;42.004;23.088;2022-10-29T21:16:45;98224.22;;;5.88;43.05
39729;BME280;25402;42.004;23.088;2022-10-29T21:19:20;98188.97;;;5.52;43.92
39729;BME280;25402;42.004;23.088;2022-10-29T21:21:50;98235.66;;;5.80;43.47
39729;BME280;25402;42.004;23.088;2022-10-29T21:24:19;98138.63;;;5.16;43.22
39729;BME280;25402;42.004;23.088;2022-10-29T21:27:39;98271.19;;;6.03;42.75
39729;BME280;25402;42.004;23.088;2022-10-29T21:30:09;98139.88;;;5.12;42.78
39729;BME280;25402;42.004;23.088;2022-10-29T21:32:43;98241.97;;;5.60;42.91
39729;BME280;25402;42.004;23.088;2022-10-29T21:35:12;98217.63;;;5.42;42.40
39729;BME280;25402;42.004;23.088;2022-10-29T21:37:41;98238.81;;;5.45;42.75
39729;BME280;25402;42.004;23.088;2022-10-29T21:40:12;98134.84;;;4.78;43.02
39729;BME280;25402;42.004;23.088;2022-10-29T21:42:45;98184.06;;;5.08;43.23